createdAt,value
2023-01-11T00:00:19.034Z,3.67
2023-01-11T00:05:20.609Z,4.22
2023-01-11T00:10:22.642Z,2.92
2023-01-11T00:15:24.219Z,2.63
2023-01-11T00:20:25.980Z,2.45
2023-01-11T00:25:27.852Z,2.30
2023-01-11T00:30:29.514Z,2.47
2023-01-11T00:35:32.370Z,3.35
2023-01-11T00:40:33.961Z,2.92
2023-01-11T00:45:54.286Z,2.15
2023-01-11T00:50:57.323Z,2.88
2023-01-11T00:55:58.916Z,2.75
2023-01-11T01:01:06.568Z,4.07
2023-01-11T01:06:08.216Z,3.53
2023-01-11T01:11:09.918Z,4.00
2023-01-11T01:16:11.500Z,3.40
2023-01-11T01:21:13.085Z,3.33
2023-01-11T01:26:14.653Z,4.85
2023-01-11T01:31:17.335Z,3.42
2023-01-11T01:36:18.922Z,1.73
2023-01-11T01:41:20.803Z,3.63
2023-01-11T01:46:26.519Z,4.07
2023-01-11T01:51:38.708Z,3.65
2023-01-11T01:56:46.606Z,4.35
2023-01-11T02:01:49.875Z,3.85
2023-01-11T02:07:16.305Z,5.30
2023-01-11T02:12:18.787Z,5.03
2023-01-11T02:17:21.666Z,4.57
2023-01-11T02:22:41.690Z,4.28
2023-01-11T02:28:10.911Z,3.13
2023-01-11T02:33:50.954Z,2.00
2023-01-11T02:39:05.918Z,2.72
2023-01-11T02:44:32.810Z,3.30
2023-01-11T02:49:46.945Z,3.17
2023-01-11T02:54:55.705Z,2.65
2023-01-11T02:59:58.385Z,3.45
2023-01-11T03:04:59.967Z,3.42
2023-01-11T03:10:32.789Z,2.75
2023-01-11T03:15:57.225Z,2.35
2023-01-11T03:21:07.803Z,2.67
2023-01-11T03:26:15.462Z,1.95
2023-01-11T03:31:38.632Z,3.60
2023-01-11T03:36:57.728Z,1.48
2023-01-11T03:42:02.139Z,1.75
2023-01-11T03:47:09.461Z,2.08
2023-01-11T03:52:15.927Z,1.63
2023-01-11T03:57:23.724Z,2.55
2023-01-11T04:02:27.489Z,2.03
2023-01-11T04:07:29.437Z,1.92
2023-01-11T04:12:31.025Z,1.75
2023-01-11T04:17:32.606Z,1.80
2023-01-11T04:22:34.180Z,3.20
2023-01-11T04:27:35.907Z,1.52
2023-01-11T04:32:37.482Z,1.67
2023-01-11T04:37:39.107Z,2.63
2023-01-11T04:42:40.691Z,1.13
2023-01-11T04:47:42.431Z,1.80
2023-01-11T04:52:43.981Z,1.27
2023-01-11T04:57:46.611Z,1.25
2023-01-11T05:02:48.205Z,1.20
2023-01-11T05:07:49.777Z,1.98
2023-01-11T05:12:51.495Z,1.75
2023-01-11T05:17:53.076Z,1.58
2023-01-11T05:22:54.691Z,1.48
2023-01-11T05:27:56.335Z,1.50
2023-01-11T05:32:57.925Z,1.50
2023-01-11T05:37:59.544Z,2.90
2023-01-11T05:43:01.166Z,1.75
2023-01-11T05:48:02.806Z,2.50
2023-01-11T05:53:04.414Z,1.85
2023-01-11T05:58:06.856Z,4.63
2023-01-11T06:03:08.537Z,4.00
2023-01-11T06:08:10.376Z,1.30
2023-01-11T06:13:27.108Z,2.10
2023-01-11T06:18:31.285Z,1.88
2023-01-11T06:23:34.624Z,2.33
2023-01-11T06:28:37.211Z,3.60
2023-01-11T06:33:38.902Z,3.65
2023-01-11T06:38:41.371Z,3.40
2023-01-11T06:43:43.054Z,2.72
2023-01-11T06:48:45.038Z,4.40
2023-01-11T06:53:46.631Z,5.45
2023-01-11T06:58:48.637Z,2.80
2023-01-11T07:03:50.435Z,1.75
2023-01-11T07:08:52.021Z,2.15
2023-01-11T07:13:53.609Z,1.67
2023-01-11T07:18:55.240Z,1.88
2023-01-11T07:23:56.822Z,2.97
2023-01-11T07:28:58.635Z,2.30
2023-01-11T07:34:00.224Z,1.67
2023-01-11T07:39:01.964Z,1.50
2023-01-11T07:44:03.970Z,4.03
2023-01-11T07:49:05.896Z,2.20
2023-01-11T07:54:07.687Z,2.35
2023-01-11T07:59:09.632Z,4.40
2023-01-11T08:04:12.740Z,2.00
2023-01-11T08:09:14.614Z,1.73
2023-01-11T08:14:35.086Z,1.40
2023-01-11T08:19:36.956Z,0.90
2023-01-11T08:24:38.584Z,1.65
2023-01-11T08:29:44.023Z,1.42
2023-01-11T08:34:45.717Z,1.00
2023-01-11T08:39:48.610Z,4.03
2023-01-11T08:44:50.236Z,1.30
2023-01-11T08:49:52.013Z,2.28
2023-01-11T08:54:53.719Z,1.88
2023-01-11T08:59:55.401Z,1.30
2023-01-11T09:04:56.997Z,1.33
2023-01-11T09:09:58.626Z,1.92
2023-01-11T09:15:00.422Z,1.30
2023-01-11T09:20:02.171Z,1.60
2023-01-11T09:25:04.319Z,3.70
2023-01-11T09:30:06.445Z,2.58
2023-01-11T09:35:08.944Z,2.08
2023-01-11T09:40:19.160Z,1.20
2023-01-11T09:45:24.084Z,8.80
2023-01-11T09:50:31.122Z,12.05
2023-01-11T09:55:39.294Z,9.93
2023-01-11T10:01:01.164Z,6.03
2023-01-11T10:06:19.675Z,4.47
2023-01-11T10:18:26.729Z,5.40
2023-01-11T10:22:39.633Z,3.35
2023-01-11T10:27:56.961Z,2.03
2023-01-11T10:33:24.327Z,2.97
2023-01-11T10:39:13.452Z,6.53
2023-01-11T10:44:23.569Z,2.35
2023-01-11T10:49:25.903Z,2.40
2023-01-11T10:54:33.332Z,3.78
2023-01-11T10:59:38.239Z,1.42
2023-01-11T11:04:55.134Z,1.50
2023-01-11T11:10:14.676Z,3.70
2023-01-11T11:16:07.916Z,2.38
2023-01-11T11:21:28.578Z,2.47
2023-01-11T11:26:37.500Z,1.87
2023-01-11T11:31:44.213Z,4.85
2023-01-11T11:36:49.144Z,4.35
2023-01-11T11:41:53.355Z,5.25
2023-01-11T11:47:08.135Z,3.10
2023-01-11T11:52:16.604Z,5.32
2023-01-11T11:57:31.765Z,2.38
2023-01-11T12:02:37.341Z,2.50
2023-01-11T12:07:55.231Z,3.05
2023-01-11T12:13:00.616Z,3.28
2023-01-11T12:18:37.540Z,5.43
2023-01-11T12:23:40.995Z,3.03
2023-01-11T12:29:01.185Z,3.20
2023-01-11T12:34:21.127Z,2.85
2023-01-11T12:39:44.363Z,3.65
2023-01-11T12:44:54.067Z,4.35
2023-01-11T12:50:21.786Z,5.25
2023-01-11T12:55:41.697Z,5.78
2023-01-11T13:00:43.247Z,5.78
2023-01-11T13:05:56.593Z,6.97
2023-01-11T13:11:35.487Z,6.05
2023-01-11T13:16:55.071Z,5.53
2023-01-11T13:21:58.663Z,5.82
2023-01-11T13:27:04.380Z,8.32
2023-01-11T13:32:12.793Z,9.90
2023-01-11T13:37:22.815Z,11.35
2023-01-11T13:42:47.558Z,9.47
2023-01-11T13:47:55.773Z,8.98
2023-01-11T13:53:36.290Z,10.93
2023-01-11T13:58:49.401Z,8.88
2023-01-11T14:04:05.225Z,10.35
2023-01-11T14:09:21.065Z,10.60
2023-01-11T14:14:36.525Z,7.65
2023-01-11T14:19:50.844Z,11.00
2023-01-11T14:25:15.305Z,9.65
2023-01-11T14:30:52.245Z,10.90
2023-01-11T14:36:12.648Z,12.95
2023-01-11T14:41:42.251Z,17.02
2023-01-11T14:47:02.069Z,11.93
2023-01-11T14:52:10.557Z,17.70
2023-01-11T14:57:35.979Z,10.98
2023-01-11T15:02:37.566Z,11.98
2023-01-11T15:07:41.621Z,12.43
2023-01-11T15:12:43.235Z,10.43
2023-01-11T15:18:04.384Z,17.08
2023-01-11T15:23:06.270Z,12.65
2023-01-11T15:28:32.796Z,14.43
2023-01-11T15:33:48.688Z,20.40
2023-01-11T15:39:00.793Z,11.63
2023-01-11T15:44:29.825Z,16.48
2023-01-11T15:50:13.534Z,13.82
2023-01-11T15:55:48.435Z,11.82
2023-01-11T16:01:08.867Z,17.40
2023-01-11T16:06:21.377Z,12.73
2023-01-11T16:11:41.487Z,14.25
2023-01-11T16:16:44.203Z,12.77
2023-01-11T16:21:49.759Z,13.90
2023-01-11T16:27:01.219Z,14.23
2023-01-11T16:32:17.636Z,17.75
2023-01-11T16:37:29.809Z,15.00
2023-01-11T16:42:37.040Z,12.20
2023-01-11T16:47:38.810Z,17.63
2023-01-11T16:52:53.294Z,18.13
2023-01-11T16:57:58.603Z,17.60
2023-01-11T17:03:03.087Z,13.55
2023-01-11T17:08:34.893Z,14.05
2023-01-11T17:19:02.457Z,14.32
2023-01-11T17:24:06.588Z,20.42
2023-01-11T17:29:08.781Z,15.20
2023-01-11T17:34:16.805Z,19.70
2023-01-11T17:39:32.421Z,15.60
2023-01-11T17:44:53.485Z,17.75
2023-01-11T17:49:56.605Z,18.75
2023-01-11T17:55:19.235Z,17.33
2023-01-11T18:00:28.874Z,15.38
2023-01-11T18:05:30.658Z,16.52
2023-01-11T18:10:37.349Z,17.02
2023-01-11T18:15:39.039Z,14.27
2023-01-11T18:20:42.675Z,15.90
2023-01-11T18:25:46.600Z,17.60
2023-01-11T18:30:54.351Z,17.25
2023-01-11T18:35:59.744Z,16.98
2023-01-11T18:41:26.469Z,22.73
2023-01-11T18:46:28.232Z,12.52
2023-01-11T18:51:36.976Z,12.88
2023-01-11T18:56:38.789Z,17.35
2023-01-11T19:01:54.471Z,17.63
2023-01-11T19:07:01.949Z,18.80
2023-01-11T19:12:03.756Z,15.73
2023-01-11T19:17:05.410Z,17.15
2023-01-11T19:22:07.590Z,18.25
2023-01-11T19:27:09.514Z,25.73
2023-01-11T19:32:11.191Z,14.30
2023-01-11T19:37:12.938Z,12.05
2023-01-11T19:42:14.559Z,14.90
2023-01-11T19:47:16.187Z,11.07
2023-01-11T19:52:20.996Z,11.13
2023-01-11T19:57:22.828Z,14.65
2023-01-11T20:02:24.612Z,12.55
2023-01-11T20:07:26.649Z,13.55
2023-01-11T20:12:28.405Z,15.90
2023-01-11T20:17:30.088Z,13.52
2023-01-11T20:22:31.742Z,12.57
2023-01-11T20:27:34.130Z,11.60
2023-01-11T20:32:42.356Z,14.20
2023-01-11T20:37:44.276Z,17.55
2023-01-11T20:42:45.875Z,14.68
2023-01-11T20:47:47.488Z,16.00
2023-01-11T20:52:49.605Z,10.18
2023-01-11T20:57:51.617Z,17.45
2023-01-11T21:02:53.263Z,18.33
2023-01-11T21:07:54.917Z,13.90
2023-01-11T21:17:59.362Z,11.70
2023-01-11T21:23:01.006Z,17.00
2023-01-11T21:28:03.208Z,16.60
2023-01-11T21:33:04.826Z,14.02
2023-01-11T21:38:06.635Z,17.13
2023-01-11T21:43:08.353Z,14.50
2023-01-11T21:48:10.057Z,16.13
2023-01-11T21:53:11.657Z,10.82
2023-01-11T21:58:13.805Z,13.73
2023-01-11T22:03:15.385Z,14.15
2023-01-11T22:08:16.958Z,13.40
2023-01-11T22:13:18.552Z,13.30
2023-01-11T22:18:22.193Z,15.05
2023-01-11T22:23:24.043Z,12.38
2023-01-11T22:28:25.612Z,15.20
2023-01-11T22:33:27.221Z,13.90
2023-01-11T22:38:28.822Z,16.38
2023-01-11T22:43:30.429Z,11.38
2023-01-11T22:48:32.072Z,15.30
2023-01-11T22:53:42.173Z,17.25
2023-01-11T22:58:43.815Z,17.47
2023-01-11T23:03:46.093Z,12.90
2023-01-11T23:08:48.169Z,15.93
2023-01-11T23:13:52.853Z,15.95
2023-01-11T23:18:54.643Z,15.85
2023-01-11T23:23:56.222Z,11.90
2023-01-11T23:28:58.051Z,14.43
2023-01-11T23:34:00.717Z,14.90
2023-01-11T23:39:03.150Z,18.15
2023-01-11T23:44:07.120Z,18.73
2023-01-11T23:49:10.318Z,16.48
2023-01-11T23:54:12.243Z,11.68
2023-01-11T23:59:14.455Z,12.07
